createdAt,value
2022-09-05T00:00:11.989Z,15.68
2022-09-05T00:01:27.457Z,15.66
2022-09-05T00:02:53.842Z,15.57
2022-09-05T00:04:25.461Z,15.55
2022-09-05T00:06:01.764Z,15.56
2022-09-05T00:07:41.229Z,15.52
2022-09-05T00:08:42.951Z,15.51
2022-09-05T00:10:10.704Z,15.51
2022-09-05T00:11:40.387Z,15.44
2022-09-05T00:12:43.521Z,15.40
2022-09-05T00:13:57.601Z,15.37
2022-09-05T00:15:21.153Z,15.41
2022-09-05T00:16:44.309Z,15.47
2022-09-05T00:23:38.686Z,15.52
2022-09-05T00:24:19.421Z,15.45
2022-09-05T00:24:36.940Z,15.40
2022-09-05T00:24:42.362Z,15.36
2022-09-05T00:25:46.403Z,15.24
2022-09-05T00:27:08.907Z,15.26
2022-09-05T00:28:47.984Z,15.29
2022-09-05T00:31:07.972Z,15.31
2022-09-05T00:31:54.603Z,15.30
2022-09-05T00:33:26.638Z,15.29
2022-09-05T00:34:36.234Z,15.26
2022-09-05T00:35:54.404Z,15.24
2022-09-05T00:36:56.092Z,15.22
2022-09-05T00:38:10.755Z,15.25
2022-09-05T00:39:19.022Z,15.28
2022-09-05T00:40:23.271Z,15.04
2022-09-05T00:41:27.735Z,14.87
2022-09-05T00:42:29.764Z,14.73
2022-09-05T00:43:33.299Z,14.73
2022-09-05T00:44:47.213Z,14.86
2022-09-05T00:46:08.292Z,15.00
2022-09-05T00:47:20.360Z,15.09
2022-09-05T00:48:38.056Z,15.14
2022-09-05T00:49:55.269Z,15.13
2022-09-05T00:51:14.665Z,15.21
2022-09-05T00:52:36.774Z,15.25
2022-09-05T00:53:50.070Z,15.27
2022-09-05T00:55:16.563Z,15.27
2022-09-05T00:56:53.200Z,15.26
2022-09-05T00:58:37.811Z,15.23
2022-09-05T00:59:58.646Z,15.20
2022-09-05T01:01:10.706Z,15.10
2022-09-05T01:02:51.458Z,15.12
2022-09-05T01:04:30.992Z,15.14
2022-09-05T01:05:49.415Z,15.15
2022-09-05T01:06:53.606Z,15.14
2022-09-05T01:08:20.264Z,15.09
2022-09-05T01:09:45.510Z,15.02
2022-09-05T01:11:10.885Z,14.98
2022-09-05T01:12:33.107Z,14.95
2022-09-05T01:14:03.170Z,14.93
2022-09-05T01:15:21.585Z,14.92
2022-09-05T01:16:28.329Z,14.92
2022-09-05T01:17:35.874Z,14.94
2022-09-05T01:18:55.897Z,14.94
2022-09-05T01:20:19.303Z,14.90
2022-09-05T01:21:59.199Z,14.95
2022-09-05T01:23:03.696Z,14.93
2022-09-05T01:24:48.389Z,14.92
2022-09-05T01:26:22.817Z,14.88
2022-09-05T01:28:59.965Z,14.85
2022-09-05T01:29:33.187Z,14.80
2022-09-05T01:30:40.799Z,14.79
2022-09-05T01:31:42.365Z,14.71
2022-09-05T01:33:12.398Z,14.68
2022-09-05T01:34:51.392Z,14.62
2022-09-05T01:36:20.221Z,14.61
2022-09-05T01:37:33.362Z,14.61
2022-09-05T01:39:09.653Z,14.66
2022-09-05T01:40:28.510Z,14.65
2022-09-05T01:41:32.771Z,14.67
2022-09-05T01:42:52.628Z,14.63
2022-09-05T01:44:12.575Z,14.64
2022-09-05T01:45:39.466Z,14.66
2022-09-05T01:47:05.604Z,14.72
2022-09-05T01:48:34.854Z,14.78
2022-09-05T01:50:00.802Z,14.70
2022-09-05T01:51:29.124Z,14.70
2022-09-05T01:53:05.087Z,14.73
2022-09-05T01:54:24.239Z,14.77
2022-09-05T01:56:05.605Z,14.79
2022-09-05T01:57:30.149Z,14.82
2022-09-05T01:58:50.259Z,14.83
2022-09-05T02:00:13.402Z,14.82
2022-09-05T02:01:42.939Z,14.83
2022-09-05T02:03:01.442Z,14.87
2022-09-05T02:04:20.187Z,14.91
2022-09-05T02:05:53.375Z,14.91
2022-09-05T02:07:29.988Z,14.88
2022-09-05T02:08:56.476Z,14.84
2022-09-05T02:10:19.823Z,14.87
2022-09-05T02:11:43.584Z,14.89
2022-09-05T02:13:02.569Z,14.96
2022-09-05T02:14:34.328Z,14.96
2022-09-05T02:15:53.849Z,14.94
2022-09-05T02:17:35.038Z,14.97
2022-09-05T02:19:11.212Z,14.92
2022-09-05T02:20:23.735Z,14.93
2022-09-05T02:21:56.212Z,14.96
2022-09-05T02:23:40.170Z,14.99
2022-09-05T02:24:46.038Z,15.00
2022-09-05T02:26:25.972Z,14.98
2022-09-05T02:28:04.416Z,15.00
2022-09-05T02:29:28.503Z,15.02
2022-09-05T02:30:47.475Z,15.03
2022-09-05T02:32:18.324Z,15.03
2022-09-05T02:33:29.432Z,15.06
2022-09-05T02:34:45.125Z,15.04
2022-09-05T02:36:11.621Z,15.06
2022-09-05T02:38:56.751Z,15.11
2022-09-05T02:45:00.222Z,15.09
2022-09-05T02:45:11.605Z,15.09
2022-09-05T02:45:13.045Z,15.08
2022-09-05T02:45:15.038Z,15.10
2022-09-05T02:45:52.849Z,15.12
2022-09-05T02:47:04.278Z,15.15
2022-09-05T02:48:28.885Z,15.17
2022-09-05T02:52:26.108Z,15.21
2022-09-05T02:57:28.443Z,15.28
2022-09-05T02:57:28.796Z,15.23
2022-09-05T02:57:34.203Z,15.25
2022-09-05T02:57:42.650Z,15.27
2022-09-05T02:58:06.326Z,15.28
2022-09-05T02:59:53.787Z,15.29
2022-09-05T03:01:14.325Z,15.28
2022-09-05T03:02:36.929Z,15.32
2022-09-05T03:03:52.279Z,15.32
2022-09-05T03:05:07.986Z,15.36
2022-09-05T03:06:34.947Z,15.36
2022-09-05T03:07:54.890Z,15.36
2022-09-05T03:09:17.189Z,15.34
2022-09-05T03:10:54.170Z,15.37
2022-09-05T03:12:28.962Z,15.37
2022-09-05T03:13:54.585Z,15.37
2022-09-05T03:15:22.301Z,15.35
2022-09-05T03:16:49.554Z,15.35
2022-09-05T03:18:39.023Z,15.30
2022-09-05T03:20:22.269Z,15.32
2022-09-05T03:21:59.012Z,15.37
2022-09-05T03:23:45.601Z,15.41
2022-09-05T03:25:05.048Z,15.40
2022-09-05T03:26:09.145Z,15.41
2022-09-05T03:27:43.450Z,15.43
2022-09-05T03:28:53.573Z,15.42
2022-09-05T03:30:15.668Z,15.43
2022-09-05T03:31:54.317Z,15.44
2022-09-05T03:32:58.520Z,15.38
2022-09-05T03:34:17.948Z,15.40
2022-09-05T03:35:56.997Z,15.45
2022-09-05T03:37:33.527Z,15.49
2022-09-05T03:38:59.604Z,15.51
2022-09-05T03:40:15.640Z,15.51
2022-09-05T03:41:48.624Z,15.55
2022-09-05T03:43:06.669Z,15.58
2022-09-05T03:44:17.036Z,15.59
2022-09-05T03:45:36.724Z,15.54
2022-09-05T03:47:03.062Z,15.44
2022-09-05T03:48:28.334Z,15.44
2022-09-05T03:52:36.726Z,15.37
2022-09-05T03:57:07.070Z,15.34
2022-09-05T03:57:19.609Z,15.27
2022-09-05T03:57:22.569Z,15.30
2022-09-05T03:57:32.398Z,15.35
2022-09-05T04:00:11.009Z,15.39
2022-09-05T04:03:10.548Z,15.43
2022-09-05T04:08:07.225Z,15.48
2022-09-05T04:08:18.781Z,15.29
2022-09-05T04:08:19.249Z,15.51
2022-09-05T04:08:31.416Z,15.11
2022-09-05T04:08:49.594Z,15.04
2022-09-05T04:10:29.732Z,14.95
2022-09-05T04:11:44.827Z,14.84
2022-09-05T04:13:04.262Z,14.83
2022-09-05T04:14:48.781Z,14.92
2022-09-05T04:16:13.860Z,15.03
2022-09-05T04:17:33.955Z,15.00
2022-09-05T04:18:48.696Z,15.05
2022-09-05T04:19:55.651Z,15.11
2022-09-05T04:21:04.872Z,15.15
2022-09-05T04:22:23.578Z,15.16
2022-09-05T04:24:09.960Z,15.17
2022-09-05T04:25:18.444Z,15.24
2022-09-05T04:26:45.091Z,15.31
2022-09-05T04:27:53.852Z,15.36
2022-09-05T04:29:43.262Z,15.37
2022-09-05T04:30:50.681Z,15.36
2022-09-05T04:32:36.100Z,15.36
2022-09-05T04:33:42.739Z,15.40
2022-09-05T04:34:53.695Z,15.43
2022-09-05T04:36:23.646Z,15.46
2022-09-05T04:37:50.238Z,15.53
2022-09-05T04:39:09.089Z,15.53
2022-09-05T04:40:32.957Z,15.42
2022-09-05T04:41:43.226Z,15.18
2022-09-05T04:42:45.291Z,15.08
2022-09-05T04:43:49.714Z,15.20
2022-09-05T04:44:56.765Z,15.32
2022-09-05T04:46:18.286Z,15.40
2022-09-05T04:47:37.910Z,15.51
2022-09-05T04:48:55.796Z,15.57
2022-09-05T04:50:05.342Z,15.63
2022-09-05T04:51:12.800Z,15.69
2022-09-05T04:52:33.914Z,15.74
2022-09-05T04:54:08.304Z,15.79
2022-09-05T04:55:12.550Z,15.81
2022-09-05T04:56:20.219Z,15.77
2022-09-05T04:57:52.188Z,15.80
2022-09-05T05:00:56.317Z,15.78
2022-09-05T05:06:01.097Z,15.84
2022-09-05T05:06:08.725Z,15.92
2022-09-05T05:06:11.538Z,16.01
2022-09-05T05:06:14.486Z,15.98
2022-09-05T05:06:47.908Z,16.02
2022-09-05T05:08:04.064Z,16.02
2022-09-05T05:09:21.596Z,16.05
2022-09-05T05:12:27.472Z,16.09
2022-09-05T05:17:54.302Z,16.09
2022-09-05T05:18:00.929Z,16.10
2022-09-05T05:18:02.949Z,16.04
2022-09-05T05:18:14.832Z,16.12
2022-09-05T05:18:39.764Z,16.14
2022-09-05T05:19:53.487Z,16.18
2022-09-05T05:21:13.770Z,16.15
2022-09-05T05:22:17.487Z,16.16
2022-09-05T05:23:33.151Z,16.23
2022-09-05T05:24:42.036Z,16.28
2022-09-05T05:25:52.066Z,16.33
2022-09-05T05:27:20.418Z,16.34
2022-09-05T05:28:28.162Z,16.38
2022-09-05T05:29:43.498Z,16.44
2022-09-05T05:30:45.057Z,16.48
2022-09-05T05:31:59.832Z,16.52
2022-09-05T05:33:34.068Z,16.58
2022-09-05T05:34:42.826Z,16.67
2022-09-05T05:35:48.394Z,16.71
2022-09-05T05:37:08.853Z,16.77
2022-09-05T05:38:16.492Z,16.81
2022-09-05T05:39:25.841Z,16.88
2022-09-05T05:40:31.628Z,16.97
2022-09-05T05:41:57.734Z,17.07
2022-09-05T05:43:37.330Z,17.24
2022-09-05T05:44:39.099Z,17.36
2022-09-05T05:45:43.720Z,17.47
2022-09-05T05:46:55.476Z,17.54
2022-09-05T05:48:03.946Z,17.60
2022-09-05T05:49:27.441Z,17.86
2022-09-05T05:50:50.701Z,18.01
2022-09-05T05:52:03.104Z,18.02
2022-09-05T05:53:43.539Z,17.94
2022-09-05T05:55:50.764Z,17.94
2022-09-05T05:56:25.195Z,17.89
2022-09-05T05:58:10.644Z,17.91
2022-09-05T06:00:01.473Z,17.96
2022-09-05T06:01:37.769Z,18.04
2022-09-05T06:03:26.487Z,18.19
2022-09-05T06:05:23.224Z,18.43
2022-09-05T06:06:54.714Z,18.42
2022-09-05T06:11:06.038Z,18.49
2022-09-05T06:14:52.810Z,18.76
2022-09-05T06:15:01.923Z,19.19
2022-09-05T06:15:06.636Z,19.04
2022-09-05T06:15:35.150Z,19.43
2022-09-05T06:17:01.339Z,19.67
2022-09-05T06:18:30.211Z,19.89
2022-09-05T06:21:01.976Z,20.21
2022-09-05T06:22:06.772Z,20.53
2022-09-05T06:23:39.484Z,20.84
2022-09-05T06:25:17.353Z,21.24
2022-09-05T06:26:34.327Z,21.55
2022-09-05T06:28:01.516Z,21.82
2022-09-05T06:28:59.916Z,22.00
2022-09-05T06:30:08.480Z,22.07
2022-09-05T06:31:46.493Z,22.04
2022-09-05T06:33:03.309Z,22.11
2022-09-05T06:34:40.426Z,22.17
2022-09-05T06:35:41.845Z,22.27
2022-09-05T06:37:07.270Z,22.42
2022-09-05T06:38:36.248Z,22.45
2022-09-05T06:40:08.904Z,22.51
2022-09-05T06:41:40.971Z,22.56
2022-09-05T06:43:10.020Z,22.51
2022-09-05T06:44:33.208Z,22.40
2022-09-05T06:45:58.482Z,22.41
2022-09-05T06:47:23.829Z,22.48
2022-09-05T06:48:45.830Z,22.41
2022-09-05T06:50:27.401Z,22.39
2022-09-05T06:52:22.987Z,22.39
2022-09-05T06:53:43.269Z,22.16
2022-09-05T06:55:04.471Z,21.93
2022-09-05T06:56:11.598Z,21.91
2022-09-05T06:57:44.326Z,21.78
2022-09-05T06:58:58.015Z,21.76
2022-09-05T07:00:10.332Z,21.90
2022-09-05T07:01:44.771Z,22.01
2022-09-05T07:03:06.775Z,22.01
2022-09-05T07:05:36.936Z,22.04
2022-09-05T07:06:19.496Z,22.09
2022-09-05T07:07:27.524Z,22.17
2022-09-05T07:08:38.035Z,22.15
2022-09-05T07:09:45.380Z,21.90
2022-09-05T07:11:11.468Z,21.86
2022-09-05T07:12:30.275Z,21.92
2022-09-05T07:13:56.253Z,22.04
2022-09-05T07:15:16.887Z,22.03
2022-09-05T07:16:21.122Z,22.09
2022-09-05T07:18:09.949Z,22.14
2022-09-05T07:19:29.888Z,22.18
2022-09-05T07:21:16.493Z,22.11
2022-09-05T07:22:36.261Z,22.20
2022-09-05T07:24:09.233Z,22.27
2022-09-05T07:25:18.147Z,22.32
2022-09-05T07:26:25.283Z,22.32
2022-09-05T07:28:27.054Z,22.34
2022-09-05T07:29:17.051Z,22.32
2022-09-05T07:30:19.648Z,22.31
2022-09-05T07:31:37.440Z,22.27
2022-09-05T07:32:44.368Z,22.27
2022-09-05T07:33:47.478Z,22.19
2022-09-05T07:34:51.158Z,22.21
2022-09-05T07:35:55.383Z,22.20
2022-09-05T07:37:39.480Z,22.13
2022-09-05T07:38:52.345Z,22.13
2022-09-05T07:40:11.273Z,22.22
2022-09-05T07:41:29.709Z,22.37
2022-09-05T07:42:45.260Z,22.26
2022-09-05T07:43:56.484Z,22.28
2022-09-05T07:45:03.602Z,22.32
2022-09-05T07:46:20.882Z,22.34
2022-09-05T07:47:30.995Z,22.32
2022-09-05T07:48:37.318Z,22.23
2022-09-05T07:49:42.296Z,22.13
2022-09-05T07:56:46.289Z,22.15
2022-09-05T07:56:50.043Z,22.24
2022-09-05T07:56:52.455Z,22.15
2022-09-05T07:57:01.476Z,21.98
2022-09-05T07:58:26.008Z,22.03
2022-09-05T07:59:28.572Z,22.13
2022-09-05T08:00:30.469Z,22.29
2022-09-05T08:01:32.922Z,22.43
2022-09-05T08:02:47.045Z,22.52
2022-09-05T08:03:56.272Z,22.53
2022-09-05T08:05:04.465Z,22.59
2022-09-05T08:06:11.104Z,22.72
2022-09-05T08:07:48.802Z,22.69
2022-09-05T08:09:21.315Z,22.65
2022-09-05T08:10:20.899Z,22.76
2022-09-05T08:11:36.008Z,22.85
2022-09-05T08:12:44.945Z,22.93
2022-09-05T08:14:45.080Z,23.11
2022-09-05T08:16:13.121Z,23.24
2022-09-05T08:17:19.847Z,23.32
2022-09-05T08:18:43.595Z,23.20
2022-09-05T08:20:09.022Z,23.14
2022-09-05T08:21:16.794Z,23.24
2022-09-05T08:22:29.498Z,23.33
2022-09-05T08:23:53.654Z,23.37
2022-09-05T08:25:14.111Z,23.48
2022-09-05T08:26:27.432Z,23.55
2022-09-05T08:27:52.031Z,23.47
2022-09-05T08:29:27.162Z,23.44
2022-09-05T08:30:33.346Z,23.49
2022-09-05T08:31:42.606Z,23.30
2022-09-05T08:32:48.434Z,23.11
2022-09-05T08:33:55.589Z,23.26
2022-09-05T08:35:05.203Z,23.37
2022-09-05T08:36:24.637Z,23.39
2022-09-05T08:37:27.219Z,23.53
2022-09-05T08:38:38.784Z,23.59
2022-09-05T08:39:44.484Z,23.71
2022-09-05T08:41:06.587Z,23.80
2022-09-05T08:42:35.029Z,23.88
2022-09-05T08:46:37.002Z,23.98
2022-09-05T08:46:40.698Z,23.81
2022-09-05T08:47:44.982Z,23.86
2022-09-05T08:48:56.403Z,23.97
2022-09-05T08:50:18.750Z,23.85
2022-09-05T08:51:25.629Z,23.96
2022-09-05T08:52:38.907Z,24.13
2022-09-05T08:54:00.062Z,23.98
2022-09-05T08:55:19.764Z,23.81
2022-09-05T08:56:23.830Z,23.71
2022-09-05T08:57:45.216Z,23.83
2022-09-05T08:59:28.500Z,23.98
2022-09-05T09:00:32.427Z,24.08
2022-09-05T09:02:38.103Z,24.13
2022-09-05T09:03:25.940Z,24.21
2022-09-05T09:05:01.899Z,24.12
2022-09-05T09:06:17.595Z,24.19
2022-09-05T09:07:51.272Z,24.23
2022-09-05T09:09:35.151Z,24.14
2022-09-05T09:10:46.886Z,24.15
2022-09-05T09:12:03.672Z,24.10
2022-09-05T09:13:22.132Z,23.98
2022-09-05T09:14:32.829Z,24.04
2022-09-05T09:15:52.897Z,23.98
2022-09-05T09:17:16.079Z,24.04
2022-09-05T09:18:19.546Z,24.03
2022-09-05T09:19:31.724Z,24.06
2022-09-05T09:20:51.597Z,24.02
2022-09-05T09:22:13.884Z,24.14
2022-09-05T09:23:34.731Z,24.32
2022-09-05T09:25:08.274Z,24.33
2022-09-05T09:26:15.818Z,24.51
2022-09-05T09:28:46.466Z,24.66
2022-09-05T09:29:05.725Z,24.85
2022-09-05T09:30:08.029Z,24.89
2022-09-05T09:31:09.575Z,24.83
2022-09-05T09:32:14.920Z,24.79
2022-09-05T09:33:27.317Z,24.92
2022-09-05T09:34:28.914Z,24.95
2022-09-05T09:35:58.461Z,24.87
2022-09-05T09:37:51.690Z,24.93
2022-09-05T09:39:37.400Z,24.94
2022-09-05T09:40:55.203Z,24.91
2022-09-05T09:42:32.503Z,24.90
2022-09-05T09:43:58.655Z,24.95
2022-09-05T09:45:28.473Z,24.86
2022-09-05T09:46:45.169Z,24.98
2022-09-05T09:48:11.004Z,25.09
2022-09-05T09:49:30.954Z,25.21
2022-09-05T09:50:32.454Z,25.34
2022-09-05T09:51:47.852Z,25.42
2022-09-05T09:53:10.706Z,25.47
2022-09-05T09:54:25.364Z,25.61
2022-09-05T09:55:59.231Z,25.52
2022-09-05T09:57:16.589Z,25.43
2022-09-05T09:58:38.724Z,25.57
2022-09-05T09:59:49.697Z,25.66
2022-09-05T10:01:21.562Z,25.64
2022-09-05T10:05:46.253Z,25.73
2022-09-05T10:10:36.188Z,25.66
2022-09-05T10:10:40.320Z,25.63
2022-09-05T10:10:45.323Z,25.66
2022-09-05T10:10:51.123Z,25.85
2022-09-05T10:11:53.839Z,25.88
2022-09-05T10:13:26.836Z,25.94
2022-09-05T10:15:10.107Z,26.09
2022-09-05T10:16:35.405Z,26.16
2022-09-05T10:17:58.215Z,26.21
2022-09-05T10:20:12.128Z,26.21
2022-09-05T10:21:26.066Z,26.09
2022-09-05T10:22:46.321Z,26.17
2022-09-05T10:24:06.490Z,26.20
2022-09-05T10:25:13.747Z,26.05
2022-09-05T10:26:48.233Z,25.84
2022-09-05T10:28:12.062Z,25.85
2022-09-05T10:29:43.026Z,25.82
2022-09-05T10:32:36.077Z,25.94
2022-09-05T10:35:08.910Z,26.10
2022-09-05T10:35:19.764Z,26.30
2022-09-05T10:36:26.598Z,26.38
2022-09-05T10:37:44.238Z,26.34
2022-09-05T10:38:52.274Z,26.43
2022-09-05T10:39:57.438Z,26.52
2022-09-05T10:41:21.410Z,26.42
2022-09-05T10:42:38.485Z,26.15
2022-09-05T10:43:53.815Z,26.09
2022-09-05T10:44:56.648Z,26.15
2022-09-05T10:45:58.139Z,26.24
2022-09-05T10:47:05.024Z,26.21
2022-09-05T10:48:26.647Z,26.23
2022-09-05T10:49:33.917Z,26.36
2022-09-05T10:50:52.304Z,26.28
2022-09-05T10:52:19.025Z,26.02
2022-09-05T10:53:39.014Z,25.93
2022-09-05T10:54:55.987Z,25.93
2022-09-05T10:56:23.096Z,26.00
2022-09-05T10:57:33.789Z,25.91
2022-09-05T11:01:34.813Z,25.97
2022-09-05T11:02:23.326Z,25.95
2022-09-05T11:02:34.878Z,25.83
2022-09-05T11:03:53.564Z,25.70
2022-09-05T11:05:08.318Z,25.51
2022-09-05T11:06:20.812Z,25.40
2022-09-05T11:07:47.972Z,25.33
2022-09-05T11:09:16.064Z,25.07
2022-09-05T11:10:28.810Z,24.95
2022-09-05T11:11:42.066Z,24.87
2022-09-05T11:12:57.452Z,24.65
2022-09-05T11:14:05.720Z,24.60
2022-09-05T11:15:29.767Z,24.56
2022-09-05T11:16:44.181Z,24.46
2022-09-05T11:17:56.188Z,24.40
2022-09-05T11:19:20.282Z,24.42
2022-09-05T11:20:55.662Z,24.32
2022-09-05T11:22:22.143Z,24.24
2022-09-05T11:23:46.721Z,24.18
2022-09-05T11:25:03.137Z,24.11
2022-09-05T11:26:08.292Z,24.07
2022-09-05T11:27:24.737Z,24.07
2022-09-05T11:29:00.246Z,24.21
2022-09-05T11:30:07.060Z,24.15
2022-09-05T11:31:17.867Z,24.07
2022-09-05T11:36:13.348Z,24.09
2022-09-05T11:38:53.652Z,24.12
2022-09-05T11:39:51.369Z,23.82
2022-09-05T11:39:52.169Z,23.96
2022-09-05T11:40:08.378Z,23.81
2022-09-05T11:40:35.390Z,23.90
2022-09-05T11:42:24.225Z,23.92
2022-09-05T11:44:24.530Z,23.93
2022-09-05T11:45:30.627Z,23.81
2022-09-05T11:46:47.781Z,23.75
2022-09-05T11:48:15.666Z,23.80
2022-09-05T11:49:34.444Z,23.75
2022-09-05T11:50:50.288Z,23.78
2022-09-05T11:52:16.730Z,23.82
2022-09-05T11:54:16.498Z,23.86
2022-09-05T11:55:45.464Z,24.03
2022-09-05T11:56:52.536Z,24.08
2022-09-05T11:58:43.698Z,24.16
2022-09-05T12:00:32.126Z,24.03
2022-09-05T12:01:54.352Z,24.00
2022-09-05T12:03:58.888Z,24.00
2022-09-05T12:05:51.167Z,24.17
2022-09-05T12:06:50.476Z,24.10
2022-09-05T12:08:09.594Z,24.05
2022-09-05T12:09:32.674Z,23.92
2022-09-05T12:11:08.124Z,24.11
2022-09-05T12:12:40.934Z,24.36
2022-09-05T12:13:54.487Z,24.46
2022-09-05T12:15:25.289Z,24.63
2022-09-05T12:16:46.108Z,24.78
2022-09-05T12:18:21.557Z,24.87
2022-09-05T12:19:40.228Z,24.95
2022-09-05T12:21:19.602Z,25.06
2022-09-05T12:22:30.219Z,25.12
2022-09-05T12:24:02.333Z,25.19
2022-09-05T12:27:44.557Z,25.00
2022-09-05T12:29:27.577Z,24.94
2022-09-05T12:29:59.753Z,25.02
2022-09-05T12:32:31.158Z,25.14
2022-09-05T12:36:02.754Z,25.09
2022-09-05T12:36:10.819Z,24.89
2022-09-05T12:40:28.607Z,24.94
2022-09-05T12:40:54.319Z,25.04
2022-09-05T12:41:34.083Z,25.09
2022-09-05T12:41:41.568Z,25.19
2022-09-05T12:41:43.038Z,24.88
2022-09-05T12:42:43.503Z,24.64
2022-09-05T12:44:42.032Z,24.58
2022-09-05T12:45:37.170Z,24.45
2022-09-05T12:46:57.393Z,24.45
2022-09-05T12:48:18.074Z,24.47
2022-09-05T12:49:36.066Z,24.50
2022-09-05T12:50:46.961Z,24.50
2022-09-05T12:51:59.454Z,24.44
2022-09-05T12:53:21.284Z,24.39
2022-09-05T12:54:33.352Z,24.40
2022-09-05T12:55:42.243Z,24.36
2022-09-05T13:00:37.674Z,24.41
2022-09-05T13:02:58.068Z,24.68
2022-09-05T13:03:01.948Z,24.83
2022-09-05T13:03:07.415Z,24.96
2022-09-05T13:03:11.420Z,25.01
2022-09-05T13:04:18.004Z,25.11
2022-09-05T13:05:26.132Z,25.16
2022-09-05T13:06:39.732Z,25.17
2022-09-05T13:07:49.991Z,25.25
2022-09-05T13:09:00.328Z,25.31
2022-09-05T13:14:50.393Z,25.48
2022-09-05T13:14:50.516Z,25.35
2022-09-05T13:14:52.377Z,25.46
2022-09-05T13:15:22.026Z,25.56
2022-09-05T13:16:27.025Z,25.61
2022-09-05T13:17:37.903Z,25.60
2022-09-05T13:18:47.060Z,25.59
2022-09-05T13:19:49.531Z,25.54
2022-09-05T13:21:26.066Z,25.50
2022-09-05T13:22:28.565Z,25.19
2022-09-05T13:23:37.847Z,25.24
2022-09-05T13:24:43.756Z,25.28
2022-09-05T13:25:52.221Z,25.32
2022-09-05T13:26:58.909Z,25.30
2022-09-05T13:28:06.547Z,25.38
2022-09-05T13:29:15.008Z,25.46
2022-09-05T13:32:21.420Z,25.35
2022-09-05T13:37:58.207Z,25.27
2022-09-05T13:38:00.574Z,24.87
2022-09-05T13:38:01.092Z,25.26
2022-09-05T13:38:03.040Z,24.87
2022-09-05T13:38:05.340Z,24.84
2022-09-05T13:39:10.837Z,24.59
2022-09-05T13:40:19.897Z,24.59
2022-09-05T13:41:29.000Z,24.80
2022-09-05T13:42:35.458Z,25.00
2022-09-05T13:43:38.979Z,24.98
2022-09-05T13:44:43.151Z,25.02
2022-09-05T13:46:20.972Z,25.11
2022-09-05T13:47:37.229Z,25.03
2022-09-05T13:50:22.420Z,25.20
2022-09-05T13:51:44.063Z,25.22
2022-09-05T13:53:19.549Z,25.28
2022-09-05T13:54:20.944Z,25.31
2022-09-05T13:55:30.420Z,25.28
2022-09-05T13:56:32.778Z,25.29
2022-09-05T13:57:43.886Z,25.24
2022-09-05T13:58:56.705Z,25.22
2022-09-05T14:00:08.119Z,25.18
2022-09-05T14:01:34.758Z,25.10
2022-09-05T14:06:47.126Z,24.89
2022-09-05T14:08:20.779Z,24.99
2022-09-05T14:09:50.330Z,25.11
2022-09-05T14:11:28.977Z,25.17
2022-09-05T14:12:40.487Z,25.08
2022-09-05T14:13:54.866Z,24.95
2022-09-05T14:15:14.684Z,24.93
2022-09-05T14:16:41.979Z,24.91
2022-09-05T14:18:20.121Z,24.94
2022-09-05T14:19:24.049Z,24.95
2022-09-05T14:20:36.116Z,24.92
2022-09-05T14:21:41.381Z,24.95
2022-09-05T14:23:07.744Z,24.93
2022-09-05T14:24:27.398Z,24.81
2022-09-05T14:25:36.280Z,24.74
2022-09-05T14:26:49.653Z,24.70
2022-09-05T14:27:51.614Z,24.72
2022-09-05T14:29:21.892Z,24.78
2022-09-05T14:33:08.111Z,24.67
2022-09-05T14:37:37.383Z,24.60
2022-09-05T14:37:42.038Z,24.45
2022-09-05T14:37:42.354Z,24.55
2022-09-05T14:37:45.048Z,24.60
2022-09-05T14:38:24.090Z,24.39
2022-09-05T14:39:52.138Z,24.42
2022-09-05T14:41:24.411Z,24.45
2022-09-05T14:42:31.856Z,24.48
2022-09-05T14:43:54.875Z,24.41
2022-09-05T14:45:38.362Z,24.43
2022-09-05T14:46:55.117Z,24.38
2022-09-05T14:48:04.336Z,24.30
2022-09-05T14:49:08.756Z,24.30
2022-09-05T14:50:36.053Z,24.34
2022-09-05T14:51:39.255Z,24.39
2022-09-05T14:57:11.542Z,24.40
2022-09-05T15:02:43.260Z,24.31
2022-09-05T15:02:46.363Z,24.40
2022-09-05T15:02:48.566Z,24.47
2022-09-05T15:02:58.030Z,24.35
2022-09-05T15:05:15.084Z,24.49
2022-09-05T15:06:33.037Z,24.46
2022-09-05T15:07:37.881Z,24.42
2022-09-05T15:11:24.243Z,24.42
2022-09-05T15:12:19.691Z,24.33
2022-09-05T15:12:23.479Z,24.27
2022-09-05T15:13:11.400Z,24.31
2022-09-05T15:14:13.287Z,24.35
2022-09-05T15:15:21.627Z,24.37
2022-09-05T15:16:25.004Z,24.42
2022-09-05T15:17:28.528Z,24.44
2022-09-05T15:18:43.240Z,24.44
2022-09-05T15:20:06.120Z,24.44
2022-09-05T15:21:33.396Z,24.52
2022-09-05T15:22:39.022Z,24.56
2022-09-05T15:23:40.544Z,24.48
2022-09-05T15:25:00.004Z,24.37
2022-09-05T15:26:26.623Z,24.33
2022-09-05T15:27:29.423Z,24.32
2022-09-05T15:28:38.341Z,24.29
2022-09-05T15:29:39.860Z,24.26
2022-09-05T15:30:55.361Z,24.22
2022-09-05T15:32:19.940Z,24.28
2022-09-05T15:33:25.849Z,24.26
2022-09-05T15:34:32.701Z,24.22
2022-09-05T15:35:37.693Z,24.20
2022-09-05T15:36:39.452Z,24.21
2022-09-05T15:37:42.974Z,24.22
2022-09-05T15:38:55.382Z,24.21
2022-09-05T15:40:23.123Z,24.16
2022-09-05T15:41:28.771Z,24.13
2022-09-05T15:42:36.765Z,24.05
2022-09-05T15:43:54.791Z,24.02
2022-09-05T15:45:10.436Z,23.98
2022-09-05T15:46:12.767Z,23.98
2022-09-05T15:47:22.990Z,24.02
2022-09-05T15:48:26.142Z,24.02
2022-09-05T15:49:51.721Z,23.94
2022-09-05T15:50:57.464Z,23.79
2022-09-05T15:52:02.441Z,23.74
2022-09-05T15:53:04.057Z,23.67
2022-09-05T15:54:05.759Z,23.63
2022-09-05T15:55:23.803Z,23.59
2022-09-05T15:56:25.424Z,23.52
2022-09-05T15:57:35.516Z,23.47
2022-09-05T15:58:53.322Z,23.47
2022-09-05T16:00:02.861Z,23.42
2022-09-05T16:01:15.595Z,23.33
2022-09-05T16:02:39.377Z,23.30
2022-09-05T16:05:59.540Z,23.21
2022-09-05T16:10:30.785Z,23.13
2022-09-05T16:10:37.465Z,23.10
2022-09-05T16:10:42.749Z,23.13
2022-09-05T16:10:47.082Z,23.11
2022-09-05T16:12:05.201Z,23.03
2022-09-05T16:12:59.054Z,23.00
2022-09-05T16:14:18.799Z,22.98
2022-09-05T16:18:53.072Z,22.94
2022-09-05T16:23:11.857Z,22.88
2022-09-05T16:23:16.571Z,22.85
2022-09-05T16:23:19.711Z,22.81
2022-09-05T16:23:24.936Z,22.80
2022-09-05T16:23:25.481Z,22.78
2022-09-05T16:24:07.190Z,22.76
2022-09-05T16:25:15.003Z,22.74
2022-09-05T16:26:25.878Z,22.67
2022-09-05T16:28:12.702Z,22.58
2022-09-05T16:29:26.251Z,22.58
2022-09-05T16:30:33.884Z,22.59
2022-09-05T16:31:47.327Z,22.62
2022-09-05T16:32:53.202Z,22.63
2022-09-05T16:33:54.668Z,22.58
2022-09-05T16:35:07.490Z,22.57
2022-09-05T16:36:47.766Z,22.58
2022-09-05T16:38:25.911Z,22.55
2022-09-05T16:39:52.205Z,22.48
2022-09-05T16:40:59.237Z,22.44
2022-09-05T16:42:11.218Z,22.39
2022-09-05T16:43:19.123Z,22.33
2022-09-05T16:44:20.537Z,22.27
2022-09-05T16:45:27.875Z,22.22
2022-09-05T16:47:20.085Z,22.18
2022-09-05T16:48:35.916Z,22.16
2022-09-05T16:49:43.713Z,22.16
2022-09-05T16:50:57.885Z,22.10
2022-09-05T16:52:09.477Z,22.08
2022-09-05T16:53:30.417Z,22.04
2022-09-05T16:54:45.407Z,21.98
2022-09-05T16:55:57.585Z,21.93
2022-09-05T16:57:05.188Z,21.88
2022-09-05T16:58:16.087Z,21.90
2022-09-05T16:59:21.963Z,21.84
2022-09-05T17:00:23.676Z,21.80
2022-09-05T17:01:34.310Z,21.81
2022-09-05T17:02:50.017Z,21.74
2022-09-05T17:03:58.651Z,21.72
2022-09-05T17:05:06.310Z,21.67
2022-09-05T17:06:17.840Z,21.67
2022-09-05T17:07:30.028Z,21.66
2022-09-05T17:08:31.543Z,21.63
2022-09-05T17:09:35.796Z,21.60
2022-09-05T17:10:57.691Z,21.56
2022-09-05T17:12:02.115Z,21.47
2022-09-05T17:13:06.435Z,21.41
2022-09-05T17:14:13.583Z,21.34
2022-09-05T17:15:19.540Z,21.33
2022-09-05T17:16:29.352Z,21.28
2022-09-05T17:18:20.611Z,21.26
2022-09-05T17:19:23.097Z,21.22
2022-09-05T17:20:28.840Z,21.18
2022-09-05T17:22:52.595Z,21.18
2022-09-05T17:29:15.722Z,21.06
2022-09-05T17:29:20.394Z,21.08
2022-09-05T17:29:25.565Z,20.92
2022-09-05T17:29:32.367Z,20.99
2022-09-05T17:29:33.950Z,20.82
2022-09-05T17:32:02.801Z,20.66
2022-09-05T17:33:20.340Z,20.60
2022-09-05T17:34:27.388Z,20.54
2022-09-05T17:35:38.149Z,20.48
2022-09-05T17:36:44.341Z,20.43
2022-09-05T17:38:12.451Z,20.43
2022-09-05T17:40:02.290Z,20.40
2022-09-05T17:41:15.724Z,20.41
2022-09-05T17:42:48.189Z,20.38
2022-09-05T17:44:24.098Z,20.29
2022-09-05T17:45:38.803Z,20.25
2022-09-05T17:47:04.441Z,20.26
2022-09-05T17:48:12.459Z,20.22
2022-09-05T17:49:35.020Z,20.19
2022-09-05T17:50:36.439Z,20.20